Time;durP1;ratioP1;P1;durP2;ratioP2;P2;SDS_P1;SDS_P2;PMS_P1;PMS_P2;Temp;Humidity;BMP_temperature;BMP_pressure;BME280_temperature;BME280_humidity;BME280_pressure;Samples;Min_cycle;Max_cycle;Signal;HPM_P1;HPM_P2
2021/06/15 00:02:06;;;;;;;4.95;3.72;;;18.40;90.50;;;;;;4790357;29;20046;-92
2021/06/15 00:04:33;;;;;;;8.85;4.10;;;18.50;90.60;;;;;;4812204;29;20056;-85
2021/06/15 00:06:59;;;;;;;7.35;5.25;;;18.40;90.50;;;;;;4813058;29;20046;-93
2021/06/15 00:09:26;;;;;;;10.38;5.88;;;18.40;90.60;;;;;;4805525;29;20044;-93
2021/06/15 00:11:53;;;;;;;9.27;4.85;;;18.40;90.90;;;;;;4806159;29;20042;-92
2021/06/15 00:14:19;;;;;;;6.90;4.57;;;18.30;90.90;;;;;;4782648;29;20047;-92
2021/06/15 00:16:46;;;;;;;7.00;4.15;;;18.20;90.90;;;;;;4790123;29;20049;-91
2021/06/15 00:19:12;;;;;;;6.68;4.20;;;18.30;91.00;;;;;;4799990;29;20061;-92
2021/06/15 00:21:39;;;;;;;7.57;4.55;;;18.20;91.00;;;;;;4800886;29;20041;-92
2021/06/15 00:24:06;;;;;;;6.65;5.07;;;18.20;90.90;;;;;;4777582;29;20055;-92
2021/06/15 00:26:33;;;;;;;7.43;4.47;;;18.20;91.20;;;;;;4799104;29;20057;-92
2021/06/15 00:28:59;;;;;;;9.70;5.13;;;18.10;91.20;;;;;;4800110;29;20049;-92
2021/06/15 00:31:27;;;;;;;8.68;4.72;;;18.00;91.30;;;;;;4796491;29;20735;-92
2021/06/15 00:33:55;;;;;;;7.15;4.00;;;18.10;91.40;;;;;;4800592;29;20053;-92
2021/06/15 00:36:21;;;;;;;7.35;4.60;;;18.10;91.30;;;;;;4796837;29;20853;-92
2021/06/15 00:38:48;;;;;;;7.07;4.00;;;18.00;91.30;;;;;;4800860;29;20148;-92
2021/06/15 00:41:14;;;;;;;8.20;5.13;;;18.10;91.30;;;;;;4798106;29;20035;-93
2021/06/15 00:43:41;;;;;;;8.55;4.38;;;18.00;91.40;;;;;;4793309;29;20521;-92
2021/06/15 00:46:08;;;;;;;7.78;4.68;;;18.00;91.40;;;;;;4796126;29;20056;-93
2021/06/15 00:48:36;;;;;;;7.53;3.75;;;18.00;91.50;;;;;;4766114;29;20045;-92
2021/06/15 00:51:07;;;;;;;5.05;3.53;;;18.00;91.50;;;;;;4792756;29;20094;-93
2021/06/15 00:53:35;;;;;;;8.18;4.03;;;18.00;91.50;;;;;;4786470;29;20065;-92
2021/06/15 00:56:04;;;;;;;6.70;4.00;;;18.00;91.50;;;;;;4794129;29;20050;-92
2021/06/15 00:58:32;;;;;;;6.95;3.08;;;17.90;91.60;;;;;;4816312;29;20057;-92
2021/06/15 01:01:01;;;;;;;5.07;3.55;;;17.90;91.50;;;;;;4786428;29;20045;-92
2021/06/15 01:03:30;;;;;;;8.05;4.75;;;17.90;91.50;;;;;;4795941;29;20050;-92
2021/06/15 01:05:59;;;;;;;6.40;4.05;;;17.90;91.60;;;;;;4769983;29;20050;-92
2021/06/15 01:09:09;;;;;;;7.72;4.72;;;17.80;91.50;;;;;;4796943;29;20038;-91
2021/06/15 01:11:39;;;;;;;7.60;4.30;;;17.70;91.80;;;;;;4769595;29;20050;-93
2021/06/15 01:14:47;;;;;;;10.15;4.45;;;17.70;91.80;;;;;;4819388;29;20042;-92
2021/06/15 01:17:27;;;;;;;5.25;3.35;;;17.60;91.80;;;;;;4817654;29;20050;-92
2021/06/15 01:20:36;;;;;;;5.45;4.60;;;17.60;91.70;;;;;;4820412;29;20050;-92
2021/06/15 01:23:28;;;;;;;7.60;4.30;;;17.60;91.80;;;;;;4797176;29;20054;-93
2021/06/15 01:26:25;;;;;;;5.07;3.83;;;17.60;91.80;;;;;;4803273;29;20050;-93
2021/06/15 01:28:58;;;;;;;7.68;4.07;;;17.50;91.90;;;;;;4800727;29;20035;-92
2021/06/15 01:31:25;;;;;;;9.48;5.20;;;17.50;92.00;;;;;;4813883;29;20049;-93
2021/06/15 01:34:04;;;;;;;5.90;4.55;;;17.40;92.10;;;;;;4803012;29;20049;-93
2021/06/15 01:36:47;;;;;;;7.30;3.80;;;17.40;92.10;;;;;;4798164;29;20046;-86
2021/06/15 01:39:22;;;;;;;7.88;4.53;;;17.40;92.10;;;;;;4810468;29;20069;-86
2021/06/15 01:42:15;;;;;;;8.48;5.20;;;17.40;92.10;;;;;;4806765;29;20053;-86
2021/06/15 01:44:46;;;;;;;12.20;6.57;;;17.40;92.20;;;;;;4808283;29;20039;-87
2021/06/15 01:47:14;;;;;;;7.60;5.15;;;17.40;92.10;;;;;;4789534;29;20088;-87
2021/06/15 01:49:50;;;;;;;6.80;4.18;;;17.30;92.00;;;;;;4799064;29;20069;-90
2021/06/15 01:52:22;;;;;;;6.63;3.58;;;17.40;92.00;;;;;;4796963;29;20039;-90
2021/06/15 01:54:50;;;;;;;5.10;3.35;;;17.40;91.90;;;;;;4811168;29;20046;-90
2021/06/15 01:57:23;;;;;;;6.47;4.18;;;17.30;92.00;;;;;;4810508;29;20062;-89
2021/06/15 02:00:05;;;;;;;7.50;4.20;;;17.30;92.00;;;;;;4774566;29;20574;-90
2021/06/15 02:02:35;;;;;;;7.22;4.03;;;17.30;92.10;;;;;;4806095;29;20057;-90
2021/06/15 02:05:07;;;;;;;6.95;3.40;;;17.30;92.10;;;;;;4804151;29;20054;-89
2021/06/15 02:07:40;;;;;;;7.68;3.13;;;17.30;92.00;;;;;;4816269;29;20505;-89
2021/06/15 02:10:14;;;;;;;6.97;3.88;;;17.30;92.00;;;;;;4807088;29;20030;-88
2021/06/15 02:13:02;;;;;;;8.02;4.10;;;17.30;92.00;;;;;;4825476;29;20482;-90
2021/06/15 02:15:48;;;;;;;7.15;3.63;;;17.30;92.00;;;;;;4832134;29;20053;-89
2021/06/15 02:18:45;;;;;;;4.97;2.72;;;17.20;92.10;;;;;;4808818;29;20064;-89
2021/06/15 02:21:30;;;;;;;6.15;3.78;;;17.20;92.00;;;;;;4803263;29;20037;-88
2021/06/15 02:24:00;;;;;;;7.53;3.90;;;17.20;92.00;;;;;;4793784;29;20038;-89
2021/06/15 02:26:30;;;;;;;5.55;3.75;;;17.30;92.10;;;;;;4810011;29;20023;-90
2021/06/15 02:28:59;;;;;;;8.27;3.95;;;17.30;92.00;;;;;;4810469;29;20053;-89
2021/06/15 02:31:33;;;;;;;7.00;3.72;;;17.30;92.10;;;;;;4822776;29;20070;-89
2021/06/15 02:34:13;;;;;;;11.40;3.90;;;17.30;92.00;;;;;;4814416;29;20029;-89
2021/06/15 02:36:49;;;;;;;6.65;3.90;;;17.30;92.00;;;;;;4791123;29;20522;-90
2021/06/15 02:39:19;;;;;;;7.18;3.67;;;17.30;92.00;;;;;;4827024;29;20059;-89
2021/06/15 02:41:48;;;;;;;10.00;4.13;;;17.30;92.00;;;;;;4811464;29;20471;-89
2021/06/15 02:44:18;;;;;;;6.22;4.13;;;17.30;92.00;;;;;;4801436;29;20066;-89
2021/06/15 02:46:50;;;;;;;10.30;4.78;;;17.30;92.00;;;;;;4823927;29;20038;-90
2021/06/15 02:49:24;;;;;;;6.28;3.28;;;17.40;92.00;;;;;;4817434;29;20383;-90
2021/06/15 02:52:22;;;;;;;6.88;3.65;;;17.40;91.90;;;;;;4794162;29;20049;-88
2021/06/15 02:54:58;;;;;;;6.75;3.25;;;17.40;91.80;;;;;;4823885;29;20054;-89
2021/06/15 02:57:26;;;;;;;8.63;3.90;;;17.50;91.70;;;;;;4828136;29;20053;-90
2021/06/15 02:59:58;;;;;;;6.57;3.22;;;17.50;91.70;;;;;;4797384;29;20070;-91
2021/06/15 03:02:26;;;;;;;6.53;3.35;;;17.50;91.60;;;;;;4801650;29;20042;-89
2021/06/15 03:04:53;;;;;;;7.97;2.95;;;17.50;91.60;;;;;;4801530;29;20042;-91
2021/06/15 03:07:20;;;;;;;8.25;3.63;;;17.50;91.50;;;;;;4796350;29;20046;-89
2021/06/15 03:09:49;;;;;;;6.25;3.10;;;17.50;91.50;;;;;;4788858;29;20478;-90
2021/06/15 03:12:25;;;;;;;4.18;2.90;;;17.50;91.40;;;;;;4813301;29;20490;-90
2021/06/15 03:15:06;;;;;;;3.53;1.88;;;17.50;91.40;;;;;;4817399;29;20394;-90
2021/06/15 03:17:37;;;;;;;5.60;1.90;;;17.50;91.40;;;;;;4799350;29;20049;-89
2021/06/15 03:20:07;;;;;;;4.03;2.50;;;17.50;91.20;;;;;;4828042;29;20050;-89
2021/06/15 03:23:06;;;;;;;7.13;2.25;;;17.50;91.20;;;;;;4795828;29;20658;-89
2021/06/15 03:25:34;;;;;;;6.68;2.13;;;17.50;91.10;;;;;;4797938;29;20041;-91
2021/06/15 03:28:29;;;;;;;3.65;1.77;;;17.50;91.00;;;;;;4836346;29;20148;-90
2021/06/15 03:31:01;;;;;;;8.77;2.22;;;17.60;91.00;;;;;;4815491;29;20049;-90
2021/06/15 03:33:33;;;;;;;3.97;2.25;;;17.60;91.00;;;;;;4799508;29;20453;-90
2021/06/15 03:36:03;;;;;;;3.08;1.58;;;17.60;90.90;;;;;;4794473;29;20034;-90
2021/06/15 03:38:32;;;;;;;6.93;2.90;;;17.60;90.90;;;;;;4799877;29;20058;-90
2021/06/15 03:41:00;;;;;;;3.97;1.98;;;17.60;90.80;;;;;;4818178;29;20046;-90
2021/06/15 03:43:30;;;;;;;5.70;2.65;;;17.60;91.00;;;;;;4814698;29;20065;-90
2021/06/15 03:46:02;;;;;;;5.38;2.15;;;17.60;90.70;;;;;;4818051;29;20045;-90
2021/06/15 03:48:30;;;;;;;3.90;1.50;;;17.70;90.70;;;;;;4797339;29;20403;-91
2021/06/15 03:50:58;;;;;;;5.38;1.77;;;17.70;90.60;;;;;;4820474;29;20046;-91
2021/06/15 03:53:29;;;;;;;4.40;1.70;;;17.70;90.50;;;;;;4800827;29;20069;-91
2021/06/15 03:55:58;;;;;;;4.60;1.73;;;17.70;90.50;;;;;;4801204;29;20039;-90
2021/06/15 03:58:27;;;;;;;4.40;1.45;;;17.70;90.70;;;;;;4813674;29;20469;-91
2021/06/15 04:00:54;;;;;;;5.22;1.45;;;17.70;90.40;;;;;;4812784;29;20061;-90
2021/06/15 04:03:23;;;;;;;4.78;2.08;;;17.70;90.40;;;;;;4788038;29;20043;-91
2021/06/15 04:05:52;;;;;;;3.53;1.75;;;17.70;90.30;;;;;;4811432;29;20050;-91
2021/06/15 04:08:20;;;;;;;2.53;1.52;;;17.70;90.20;;;;;;4816467;29;20050;-91
2021/06/15 04:10:51;;;;;;;2.92;1.02;;;17.70;90.10;;;;;;4801929;29;20074;-91
2021/06/15 04:13:19;;;;;;;4.38;1.52;;;17.70;90.10;;;;;;4785560;29;20046;-91
2021/06/15 04:15:48;;;;;;;5.07;1.73;;;17.70;90.10;;;;;;4803715;29;20046;-81
2021/06/15 04:18:18;;;;;;;2.15;1.00;;;17.70;90.00;;;;;;4795283;29;20042;-82
2021/06/15 04:20:48;;;;;;;3.47;1.00;;;17.70;90.00;;;;;;4799818;29;20066;-91
2021/06/15 04:23:20;;;;;;;5.38;1.00;;;17.70;90.00;;;;;;4832658;29;20053;-91
2021/06/15 04:25:48;;;;;;;4.05;1.00;;;17.80;89.80;;;;;;4822189;29;20038;-89
2021/06/15 04:28:16;;;;;;;5.18;1.38;;;17.90;89.60;;;;;;4826335;29;20041;-88
2021/06/15 04:30:43;;;;;;;3.78;1.40;;;17.90;89.40;;;;;;4791149;29;20045;-90
2021/06/15 04:33:13;;;;;;;5.57;1.17;;;17.90;89.20;;;;;;4791022;29;20035;-92
2021/06/15 04:35:43;;;;;;;4.18;1.10;;;17.90;88.90;;;;;;4811645;29;20034;-91
2021/06/15 04:38:17;;;;;;;2.78;0.80;;;17.90;88.90;;;;;;4798655;29;20041;-91
2021/06/15 04:40:57;;;;;;;2.25;1.30;;;18.00;88.60;;;;;;4799296;29;20042;-92
2021/06/15 04:43:43;;;;;;;13.77;9.20;;;17.90;88.40;;;;;;4809437;29;20042;-91
2021/06/15 04:46:40;;;;;;;7.15;2.85;;;17.90;88.10;;;;;;4801722;29;20038;-94
2021/06/15 04:49:36;;;;;;;4.25;1.20;;;17.90;87.70;;;;;;4792326;29;20054;-89
2021/06/15 04:52:04;;;;;;;7.78;1.27;;;17.90;87.50;;;;;;4788859;29;20407;-88
2021/06/15 04:54:38;;;;;;;2.20;0.70;;;17.80;87.30;;;;;;4810064;29;20497;-89
2021/06/15 04:57:11;;;;;;;4.78;0.82;;;17.80;87.00;;;;;;4821533;29;20046;-89
2021/06/15 04:59:40;;;;;;;2.63;0.50;;;17.80;87.00;;;;;;4794273;29;20041;-89
2021/06/15 05:02:08;;;;;;;4.85;0.70;;;17.80;86.90;;;;;;4797325;29;20042;-90
2021/06/15 05:04:37;;;;;;;5.22;0.50;;;17.80;86.70;;;;;;4798409;29;20042;-89
2021/06/15 05:07:04;;;;;;;3.85;0.60;;;17.90;86.50;;;;;;4778727;29;20049;-89
2021/06/15 05:09:33;;;;;;;4.00;0.70;;;17.90;86.70;;;;;;4809709;29;20057;-89
2021/06/15 05:12:01;;;;;;;6.75;0.60;;;17.90;86.60;;;;;;4806138;29;20049;-89
2021/06/15 05:14:33;;;;;;;2.80;0.40;;;17.80;85.80;;;;;;4777111;29;20043;-89
2021/06/15 05:17:01;;;;;;;1.70;0.40;;;17.80;85.90;;;;;;4809243;29;20038;-89
2021/06/15 05:19:28;;;;;;;3.47;0.60;;;17.80;85.90;;;;;;4780259;29;20042;-90
2021/06/15 05:22:02;;;;;;;2.30;0.60;;;17.80;85.60;;;;;;4802617;29;20050;-81
2021/06/15 05:24:58;;;;;;;1.92;0.40;;;17.80;85.50;;;;;;4822009;29;20513;-90
2021/06/15 05:27:30;;;;;;;6.63;1.08;;;17.80;85.60;;;;;;4793374;29;20053;-89
2021/06/15 05:29:58;;;;;;;4.07;0.60;;;17.80;85.10;;;;;;4826238;29;20786;-89
2021/06/15 05:32:24;;;;;;;3.90;0.60;;;17.70;85.10;;;;;;4792495;29;20038;-82
2021/06/15 05:34:51;;;;;;;3.20;0.47;;;17.80;85.30;;;;;;4823415;29;20591;-82
2021/06/15 05:37:19;;;;;;;4.07;0.50;;;17.90;85.30;;;;;;4778596;29;20046;-82
2021/06/15 05:39:45;;;;;;;4.13;0.60;;;18.00;85.00;;;;;;4791318;29;20046;-89
2021/06/15 05:42:12;;;;;;;4.05;0.70;;;18.10;84.80;;;;;;4778251;29;20427;-88
2021/06/15 05:44:43;;;;;;;5.15;0.60;;;18.20;84.50;;;;;;4811676;29;20057;-89
2021/06/15 05:47:10;;;;;;;2.67;0.60;;;18.30;84.20;;;;;;4804735;29;20841;-89
2021/06/15 05:49:37;;;;;;;3.90;0.63;;;18.40;84.10;;;;;;4799906;29;20446;-88
2021/06/15 05:52:10;;;;;;;4.18;0.50;;;18.40;83.80;;;;;;4808055;29;20054;-88
2021/06/15 05:54:38;;;;;;;4.80;0.55;;;18.40;83.70;;;;;;4798315;29;20058;-87
2021/06/15 05:57:06;;;;;;;3.85;0.50;;;18.50;83.60;;;;;;4822064;29;20469;-92
2021/06/15 05:59:33;;;;;;;4.07;0.60;;;18.60;83.80;;;;;;4814134;29;20034;-92
2021/06/15 06:01:59;;;;;;;4.57;0.75;;;18.70;82.70;;;;;;4804041;29;20497;-92
2021/06/15 06:04:28;;;;;;;3.97;0.80;;;18.70;82.50;;;;;;4808492;29;20039;-92
2021/06/15 06:09:42;;;;;;;6.10;0.60;;;19.10;82.40;;;;;;4819841;29;20053;-92
2021/06/15 06:12:09;;;;;;;4.10;0.82;;;19.20;81.50;;;;;;4798780;29;20486;-92
2021/06/15 06:14:36;;;;;;;7.35;0.70;;;19.20;80.90;;;;;;4787479;29;20050;-91
2021/06/15 06:17:06;;;;;;;6.05;0.77;;;19.20;81.60;;;;;;4802636;29;20046;-89
2021/06/15 06:19:33;;;;;;;5.45;0.93;;;19.30;81.20;;;;;;4819386;29;20041;-86
2021/06/15 06:22:00;;;;;;;5.03;1.02;;;19.50;81.10;;;;;;4812055;29;20062;-87
2021/06/15 06:24:27;;;;;;;4.90;1.23;;;19.60;80.60;;;;;;4815319;29;20044;-88
2021/06/15 06:26:54;;;;;;;5.70;0.77;;;19.80;79.80;;;;;;4799587;29;20042;-93
2021/06/15 06:29:23;;;;;;;2.95;0.50;;;19.80;79.50;;;;;;4826229;29;20034;-92
2021/06/15 06:31:49;;;;;;;4.28;0.50;;;19.90;79.30;;;;;;4806748;29;20122;-92
2021/06/15 06:34:16;;;;;;;5.22;0.60;;;19.90;78.60;;;;;;4794541;29;20042;-92
2021/06/15 06:36:44;;;;;;;4.82;0.50;;;20.00;78.40;;;;;;4799630;29;20057;-92
2021/06/15 06:39:10;;;;;;;2.60;0.43;;;19.90;77.40;;;;;;4806654;29;20483;-93
2021/06/15 06:41:37;;;;;;;3.25;0.50;;;19.90;76.70;;;;;;4802100;29;20039;-93
2021/06/15 06:44:05;;;;;;;3.72;0.65;;;19.80;76.30;;;;;;4804783;29;20052;-92
2021/06/15 06:46:31;;;;;;;2.35;0.35;;;19.70;75.10;;;;;;4794152;29;20500;-93
2021/06/15 06:48:58;;;;;;;4.30;0.52;;;19.70;74.60;;;;;;4798892;29;20046;-92
2021/06/15 06:51:25;;;;;;;3.83;0.43;;;19.70;74.50;;;;;;4798537;29;20137;-92
2021/06/15 06:53:52;;;;;;;4.30;0.50;;;19.70;74.30;;;;;;4786009;29;20065;-92
2021/06/15 06:56:20;;;;;;;3.10;0.50;;;19.80;74.00;;;;;;4808648;29;20034;-92
2021/06/15 06:58:47;;;;;;;3.65;0.65;;;20.00;74.20;;;;;;4817240;29;20066;-92
2021/06/15 07:01:14;;;;;;;4.90;0.50;;;20.20;74.40;;;;;;4803129;29;20042;-92
2021/06/15 07:03:41;;;;;;;4.47;0.57;;;20.40;74.10;;;;;;4800179;29;20047;-92
2021/06/15 07:06:08;;;;;;;2.30;0.47;;;20.50;73.10;;;;;;4797842;29;20055;-91
2021/06/15 07:08:34;;;;;;;2.85;0.40;;;20.50;72.40;;;;;;4798503;29;20057;-91
2021/06/15 07:11:01;;;;;;;4.95;0.50;;;20.50;72.70;;;;;;4798308;29;20049;-91
2021/06/15 07:13:27;;;;;;;3.08;0.43;;;20.60;72.90;;;;;;4802431;29;20041;-91
2021/06/15 07:15:54;;;;;;;6.25;0.52;;;20.60;72.80;;;;;;4795484;29;20890;-83
2021/06/15 07:18:20;;;;;;;6.05;0.63;;;20.60;72.80;;;;;;4802260;29;20395;-92
2021/06/15 07:20:47;;;;;;;3.47;0.57;;;20.70;73.00;;;;;;4799188;29;20046;-93
2021/06/15 07:23:14;;;;;;;4.10;0.60;;;20.70;73.00;;;;;;4813500;29;20049;-91
2021/06/15 07:25:41;;;;;;;5.18;0.40;;;20.60;72.40;;;;;;4795445;29;20045;-92
2021/06/15 07:28:08;;;;;;;2.30;0.40;;;20.70;72.10;;;;;;4787272;29;20054;-91
2021/06/15 07:30:35;;;;;;;3.33;0.40;;;20.90;70.90;;;;;;4779953;29;20057;-90
2021/06/15 07:33:01;;;;;;;2.35;0.50;;;21.10;69.10;;;;;;4796534;29;20039;-90
2021/06/15 07:35:29;;;;;;;4.20;0.30;;;21.20;68.40;;;;;;4795360;29;20041;-90
2021/06/15 07:37:56;;;;;;;3.10;0.40;;;21.50;68.30;;;;;;4811546;29;20046;-91
2021/06/15 07:40:23;;;;;;;3.60;0.40;;;21.70;68.20;;;;;;4793293;29;20045;-91
2021/06/15 07:42:52;;;;;;;2.35;0.38;;;21.90;67.80;;;;;;4805986;29;20061;-90
2021/06/15 07:45:19;;;;;;;5.25;0.55;;;22.20;67.30;;;;;;4829231;29;20045;-90
2021/06/15 07:47:48;;;;;;;3.20;0.45;;;22.40;66.50;;;;;;4821681;29;20053;-90
2021/06/15 07:50:16;;;;;;;5.15;0.60;;;22.80;65.90;;;;;;4821537;29;20030;-92
2021/06/15 07:52:44;;;;;;;4.13;0.40;;;23.10;65.20;;;;;;4805824;29;20047;-92
2021/06/15 07:55:12;;;;;;;4.45;0.50;;;23.30;64.40;;;;;;4794205;29;20053;-92
2021/06/15 07:57:39;;;;;;;3.13;0.45;;;23.30;63.80;;;;;;4820415;29;20055;-91
2021/06/15 08:00:09;;;;;;;3.60;0.50;;;23.30;63.10;;;;;;4797985;29;20061;-86
2021/06/15 08:02:45;;;;;;;4.78;0.50;;;23.20;63.00;;;;;;4807967;29;20045;-92
2021/06/15 08:05:13;;;;;;;2.13;0.38;;;23.10;62.80;;;;;;4813775;29;20034;-93
2021/06/15 08:07:40;;;;;;;4.47;0.75;;;23.10;62.50;;;;;;4795728;29;20046;-92
2021/06/15 08:10:08;;;;;;;5.70;0.60;;;23.10;61.30;;;;;;4790185;29;20383;-92
2021/06/15 08:12:35;;;;;;;2.17;0.60;;;23.10;61.50;;;;;;4801502;29;20418;-91
2021/06/15 08:15:02;;;;;;;5.05;0.60;;;23.10;60.80;;;;;;4818915;29;20390;-92
2021/06/15 08:17:29;;;;;;;3.33;0.60;;;23.20;60.40;;;;;;4792314;29;20068;-91
2021/06/15 08:19:55;;;;;;;3.70;0.68;;;23.40;60.80;;;;;;4812159;29;20717;-91
2021/06/15 08:22:22;;;;;;;3.15;0.55;;;23.60;60.30;;;;;;4794419;29;20409;-92
2021/06/15 08:24:49;;;;;;;6.55;0.63;;;23.60;60.60;;;;;;4812525;29;20490;-92
2021/06/15 08:27:15;;;;;;;3.70;0.60;;;23.70;60.50;;;;;;4787763;29;20498;-91
2021/06/15 08:29:42;;;;;;;3.55;0.50;;;23.80;60.40;;;;;;4798191;29;20053;-83
2021/06/15 08:32:09;;;;;;;2.78;0.38;;;23.90;59.40;;;;;;4789526;29;20042;-87
2021/06/15 08:34:37;;;;;;;2.78;0.47;;;23.90;58.90;;;;;;4790540;29;20475;-88
2021/06/15 08:37:03;;;;;;;3.22;0.40;;;24.00;59.10;;;;;;4819182;29;20090;-89
2021/06/15 08:39:30;;;;;;;3.25;0.70;;;24.10;58.60;;;;;;4793380;29;20062;-88
2021/06/15 08:41:57;;;;;;;3.47;0.65;;;24.20;58.00;;;;;;4793073;29;20068;-88
2021/06/15 08:44:23;;;;;;;3.20;0.40;;;24.20;57.70;;;;;;4783972;29;20073;-87
2021/06/15 08:46:51;;;;;;;8.68;3.72;;;24.20;57.10;;;;;;4794372;29;20049;-87
2021/06/15 08:49:18;;;;;;;4.60;0.57;;;24.20;56.60;;;;;;4794411;29;20045;-88
2021/06/15 08:51:46;;;;;;;3.88;0.50;;;24.20;56.80;;;;;;4804472;29;20136;-89
2021/06/15 08:54:17;;;;;;;3.22;0.45;;;24.30;57.50;;;;;;4807691;29;20064;-87
2021/06/15 08:56:45;;;;;;;9.25;0.90;;;24.30;57.80;;;;;;4804923;29;20419;-87
2021/06/15 08:59:28;;;;;;;4.65;0.45;;;24.40;58.20;;;;;;4791480;29;20048;-87
2021/06/15 09:02:00;;;;;;;6.70;1.20;;;24.60;57.90;;;;;;4805688;29;20033;-87
2021/06/15 09:04:27;;;;;;;4.53;0.73;;;24.70;58.00;;;;;;4818186;29;20046;-88
2021/06/15 09:06:59;;;;;;;3.47;0.85;;;25.00;57.80;;;;;;4806612;29;20046;-87
2021/06/15 09:09:46;;;;;;;6.33;1.23;;;25.30;57.80;;;;;;4790897;29;20049;-88
2021/06/15 09:12:15;;;;;;;4.18;0.63;;;25.60;56.60;;;;;;4775287;29;20294;-86
2021/06/15 09:14:50;;;;;;;4.60;0.60;;;25.50;56.90;;;;;;4793474;29;20043;-88
2021/06/15 09:17:27;;;;;;;4.30;0.60;;;25.40;56.10;;;;;;4802611;29;20030;-87
2021/06/15 09:19:55;;;;;;;2.47;0.40;;;25.20;56.00;;;;;;4791582;29;20126;-87
2021/06/15 09:22:24;;;;;;;3.58;0.65;;;25.20;56.20;;;;;;4803570;29;20164;-87
2021/06/15 09:24:51;;;;;;;2.22;0.50;;;25.20;55.10;;;;;;4803037;29;20562;-87
2021/06/15 09:27:20;;;;;;;4.10;0.50;;;25.10;55.00;;;;;;4790692;29;20637;-88
2021/06/15 09:29:52;;;;;;;2.55;0.40;;;25.10;55.30;;;;;;4808298;29;20049;-85
2021/06/15 09:32:24;;;;;;;3.25;0.40;;;25.20;55.90;;;;;;4818117;29;20050;-87
2021/06/15 09:34:57;;;;;;;3.20;0.50;;;25.50;55.60;;;;;;4781321;29;20050;-86
2021/06/15 09:37:31;;;;;;;5.53;0.55;;;25.80;55.00;;;;;;4781663;29;20042;-87
2021/06/15 09:39:59;;;;;;;2.95;0.40;;;25.90;54.20;;;;;;4815927;29;20055;-87
2021/06/15 09:42:27;;;;;;;2.97;0.50;;;26.00;53.00;;;;;;4819704;29;20049;-87
2021/06/15 09:44:54;;;;;;;3.40;0.40;;;26.10;53.00;;;;;;4777380;29;20061;-85
2021/06/15 09:47:23;;;;;;;2.70;0.40;;;26.10;52.00;;;;;;4776271;29;20060;-82
2021/06/15 09:49:50;;;;;;;2.65;0.40;;;26.00;52.00;;;;;;4826693;29;20046;-83
2021/06/15 09:52:27;;;;;;;2.58;0.50;;;26.00;52.00;;;;;;4795761;29;20057;-82
2021/06/15 09:55:06;;;;;;;3.20;0.57;;;26.20;51.10;;;;;;4808268;29;20046;-82
2021/06/15 09:57:39;;;;;;;3.67;0.60;;;26.30;50.90;;;;;;4813090;29;20140;-82
2021/06/15 10:00:24;;;;;;;9.68;0.63;;;26.40;50.70;;;;;;4820968;29;20046;-89
2021/06/15 10:02:59;;;;;;;6.20;0.70;;;26.60;50.90;;;;;;4811137;29;20050;-81
2021/06/15 10:05:36;;;;;;;3.28;0.40;;;26.80;50.40;;;;;;4814690;29;20046;-80
2021/06/15 10:08:08;;;;;;;2.05;0.40;;;27.00;50.50;;;;;;4822093;29;20045;-81
2021/06/15 10:10:40;;;;;;;2.03;0.28;;;27.10;50.00;;;;;;4804284;29;20050;-81
2021/06/15 10:13:07;;;;;;;;;;;27.30;49.50;;;;;;4828382;29;20386;-81
2021/06/15 10:15:36;;;;;;;8.00;0.50;;;27.40;48.50;;;;;;4796071;29;19920;-80
2021/06/15 10:18:03;;;;;;;14.90;1.10;;;27.30;48.40;;;;;;4809059;29;20038;-81
2021/06/15 10:20:32;;;;;;;4.80;0.40;;;27.30;47.50;;;;;;4822483;29;20037;-81
2021/06/15 10:23:00;;;;;;;2.38;0.40;;;27.40;47.30;;;;;;4806647;29;20530;-81
2021/06/15 10:25:31;;;;;;;1.98;0.47;;;27.50;47.70;;;;;;4823595;29;20061;-81
2021/06/15 10:27:59;;;;;;;1.73;0.35;;;27.70;46.90;;;;;;4809112;29;20045;-80
2021/06/15 10:30:33;;;;;;;1.65;0.45;;;27.70;45.60;;;;;;4777790;29;20047;-81
2021/06/15 10:33:10;;;;;;;2.85;0.63;;;27.70;46.50;;;;;;4823075;29;20042;-81
2021/06/15 10:35:58;;;;;;;2.30;0.40;;;27.80;46.20;;;;;;4823219;29;20493;-82
2021/06/15 10:38:25;;;;;;;2.53;0.40;;;28.00;46.60;;;;;;4820911;29;20030;-80
2021/06/15 10:40:54;;;;;;;2.33;0.40;;;28.30;46.40;;;;;;4819206;29;21116;-80
2021/06/15 10:43:42;;;;;;;1.88;0.30;;;28.50;45.90;;;;;;4798833;29;20034;-79
2021/06/15 10:46:14;;;;;;;10.20;6.45;;;28.50;45.10;;;;;;4819632;29;20037;-79
2021/06/15 10:48:47;;;;;;;4.43;1.92;;;28.30;44.60;;;;;;4797837;29;20061;-79
2021/06/15 10:51:29;;;;;;;3.38;0.70;;;28.20;45.30;;;;;;4796689;29;21017;-80
2021/06/15 10:54:02;;;;;;;4.97;0.60;;;28.40;45.40;;;;;;4799798;29;20061;-78
2021/06/15 10:56:33;;;;;;;2.67;0.40;;;28.70;45.10;;;;;;4817324;29;20467;-78
2021/06/15 10:59:06;;;;;;;2.30;0.35;;;29.10;44.10;;;;;;4816569;29;20042;-79
2021/06/15 11:01:38;;;;;;;4.32;0.57;;;29.20;43.50;;;;;;4813593;29;20037;-79
2021/06/15 11:04:07;;;;;;;2.13;0.40;;;29.40;43.60;;;;;;4814369;29;20034;-77
2021/06/15 11:06:34;;;;;;;1.77;0.30;;;29.70;43.40;;;;;;4815350;29;20042;-80
2021/06/15 11:09:06;;;;;;;3.97;0.50;;;30.00;42.80;;;;;;4808569;29;20062;-80
2021/06/15 11:11:34;;;;;;;3.03;0.43;;;30.20;42.20;;;;;;4805863;29;20037;-80
2021/06/15 11:14:15;;;;;;;4.35;0.45;;;30.30;42.10;;;;;;4804241;29;20042;-81
2021/06/15 11:16:46;;;;;;;4.43;0.38;;;30.50;41.50;;;;;;4805700;29;20054;-81
2021/06/15 11:19:17;;;;;;;3.33;0.50;;;30.60;40.30;;;;;;4805164;29;20058;-80
2021/06/15 11:21:46;;;;;;;2.40;0.50;;;30.70;40.80;;;;;;4803061;29;20047;-80
2021/06/15 11:24:36;;;;;;;2.15;0.30;;;31.00;40.40;;;;;;4805269;29;20059;-80
2021/06/15 11:27:05;;;;;;;2.17;0.30;;;31.30;39.60;;;;;;4819978;29;20485;-80
2021/06/15 11:29:39;;;;;;;2.03;0.40;;;31.60;39.30;;;;;;4814831;29;20414;-80
2021/06/15 11:32:18;;;;;;;2.08;0.50;;;31.80;38.70;;;;;;4822395;29;20058;-81
2021/06/15 11:35:01;;;;;;;3.15;0.40;;;31.90;38.20;;;;;;4821647;29;20055;-81
2021/06/15 11:37:33;;;;;;;2.55;0.40;;;31.90;37.70;;;;;;4821998;29;20044;-84
2021/06/15 11:40:16;;;;;;;3.25;0.57;;;32.00;38.00;;;;;;4809690;29;20057;-81
2021/06/15 11:42:55;;;;;;;1.98;0.38;;;32.10;37.70;;;;;;4811471;29;20042;-81
2021/06/15 11:45:33;;;;;;;3.15;0.47;;;32.60;38.20;;;;;;4816132;29;20520;-83
2021/06/15 11:48:20;;;;;;;3.03;0.40;;;32.90;36.90;;;;;;4791208;29;20152;-81
2021/06/15 11:50:55;;;;;;;2.15;0.40;;;33.00;36.20;;;;;;4799014;29;20042;-83
2021/06/15 11:53:23;;;;;;;2.92;0.60;;;32.80;35.80;;;;;;4792134;29;20426;-78
2021/06/15 11:55:53;;;;;;;5.05;0.52;;;32.70;36.30;;;;;;4817919;29;20057;-81
2021/06/15 11:58:25;;;;;;;4.20;0.63;;;32.80;36.30;;;;;;4800537;29;20031;-82
2021/06/15 12:00:54;;;;;;;4.65;0.60;;;33.00;36.40;;;;;;4815656;29;20431;-82
2021/06/15 12:03:26;;;;;;;2.30;0.50;;;33.20;36.00;;;;;;4786632;29;20514;-82
2021/06/15 12:05:58;;;;;;;2.78;0.60;;;33.70;36.00;;;;;;4790830;29;20411;-82
2021/06/15 12:08:35;;;;;;;3.00;0.40;;;34.30;36.00;;;;;;4802102;29;20053;-82
2021/06/15 12:11:03;;;;;;;3.80;0.50;;;34.80;35.20;;;;;;4790737;29;20057;-82
2021/06/15 12:13:32;;;;;;;2.65;0.50;;;35.10;34.60;;;;;;4826496;29;20062;-82
2021/06/15 12:16:15;;;;;;;3.40;0.50;;;35.10;34.20;;;;;;4822211;29;20050;-83
2021/06/15 12:18:44;;;;;;;3.83;0.65;;;35.00;34.80;;;;;;4790528;29;20069;-82
2021/06/15 12:21:16;;;;;;;4.57;0.70;;;35.20;34.50;;;;;;4800250;29;20042;-82
2021/06/15 12:23:50;;;;;;;;;;;35.50;33.90;;;;;;4793727;29;20061;-82
2021/06/15 12:26:32;;;;;;;2.90;0.50;;;35.50;33.70;;;;;;4791508;29;20377;-82
2021/06/15 12:29:01;;;;;;;3.00;0.50;;;35.30;33.90;;;;;;4820949;29;20043;-82
2021/06/15 12:31:32;;;;;;;3.22;0.63;;;35.10;33.80;;;;;;4790789;29;20042;-83
2021/06/15 12:34:00;;;;;;;5.22;0.50;;;35.10;33.80;;;;;;4791499;29;20038;-82
2021/06/15 12:36:30;;;;;;;3.83;0.50;;;35.10;33.60;;;;;;4791021;29;20039;-83
2021/06/15 12:39:11;;;;;;;4.72;0.50;;;35.20;33.60;;;;;;4808447;29;20402;-83
2021/06/15 12:41:39;;;;;;;4.50;0.68;;;35.30;33.90;;;;;;4821524;29;20061;-82
2021/06/15 12:44:07;;;;;;;3.35;0.50;;;35.50;33.90;;;;;;4817761;29;20414;-83
2021/06/15 12:46:36;;;;;;;3.90;0.50;;;35.50;33.70;;;;;;4788959;29;20057;-82
2021/06/15 12:49:04;;;;;;;3.58;0.90;;;35.60;33.50;;;;;;4791709;29;20049;-83
2021/06/15 12:51:31;;;;;;;4.07;0.80;;;35.90;33.50;;;;;;4803225;29;20509;-92
2021/06/15 12:54:02;;;;;;;3.65;0.60;;;36.00;32.40;;;;;;4812380;29;20054;-89
2021/06/15 12:56:31;;;;;;;3.72;0.50;;;35.60;32.80;;;;;;4827721;29;20050;-90
2021/06/15 12:59:10;;;;;;;2.90;0.63;;;35.50;33.10;;;;;;4808630;29;20049;-91
2021/06/15 13:01:40;;;;;;;3.63;0.70;;;35.60;33.00;;;;;;4794555;29;20066;-92
2021/06/15 13:04:18;;;;;;;4.55;1.10;;;35.70;32.50;;;;;;4810700;29;20505;-90
2021/06/15 13:06:46;;;;;;;5.90;0.88;;;35.70;32.60;;;;;;4820457;29;20038;-90
2021/06/15 13:09:20;;;;;;;3.45;0.60;;;35.90;33.20;;;;;;4789539;29;20068;-93
2021/06/15 13:12:04;;;;;;;3.97;0.60;;;36.20;32.60;;;;;;4790403;29;20045;-89
2021/06/15 13:14:43;;;;;;;2.58;0.55;;;36.30;32.20;;;;;;4800266;29;20505;-90